sensor_id;sensor_type;location;lat;lon;timestamp;P1;durP1;ratioP1;P2;durP2;ratioP2
53299;SDS011;39187;48.476;8.310;2022-12-18T00:01:27;14.40;;;10.30;;
53299;SDS011;39187;48.476;8.310;2022-12-18T00:03:54;15.30;;;10.07;;
53299;SDS011;39187;48.476;8.310;2022-12-18T00:06:21;13.83;;;10.97;;
53299;SDS011;39187;48.476;8.310;2022-12-18T00:08:48;14.43;;;10.33;;
53299;SDS011;39187;48.476;8.310;2022-12-18T00:11:15;20.90;;;10.57;;
53299;SDS011;39187;48.476;8.310;2022-12-18T00:13:45;14.50;;;10.20;;
53299;SDS011;39187;48.476;8.310;2022-12-18T00:16:13;18.10;;;11.30;;
53299;SDS011;39187;48.476;8.310;2022-12-18T00:18:41;19.83;;;11.70;;
53299;SDS011;39187;48.476;8.310;2022-12-18T00:21:08;15.67;;;10.30;;
53299;SDS011;39187;48.476;8.310;2022-12-18T00:23:36;15.33;;;9.37;;
53299;SDS011;39187;48.476;8.310;2022-12-18T00:26:04;17.83;;;10.20;;
53299;SDS011;39187;48.476;8.310;2022-12-18T00:28:32;20.67;;;11.50;;
53299;SDS011;39187;48.476;8.310;2022-12-18T00:31:08;16.23;;;10.60;;
53299;SDS011;39187;48.476;8.310;2022-12-18T00:33:36;22.63;;;12.13;;
53299;SDS011;39187;48.476;8.310;2022-12-18T00:36:06;23.00;;;12.30;;
53299;SDS011;39187;48.476;8.310;2022-12-18T00:38:34;14.87;;;10.67;;
53299;SDS011;39187;48.476;8.310;2022-12-18T00:41:00;17.23;;;11.80;;
53299;SDS011;39187;48.476;8.310;2022-12-18T00:43:25;28.93;;;13.17;;
53299;SDS011;39187;48.476;8.310;2022-12-18T00:45:51;17.20;;;11.70;;
53299;SDS011;39187;48.476;8.310;2022-12-18T00:48:16;19.00;;;11.33;;
53299;SDS011;39187;48.476;8.310;2022-12-18T00:50:42;23.33;;;12.27;;
53299;SDS011;39187;48.476;8.310;2022-12-18T00:53:11;19.77;;;12.93;;
53299;SDS011;39187;48.476;8.310;2022-12-18T00:55:37;27.90;;;13.60;;
53299;SDS011;39187;48.476;8.310;2022-12-18T00:58:04;19.60;;;12.63;;
53299;SDS011;39187;48.476;8.310;2022-12-18T01:00:33;18.10;;;11.13;;
53299;SDS011;39187;48.476;8.310;2022-12-18T01:02:58;19.87;;;11.57;;
53299;SDS011;39187;48.476;8.310;2022-12-18T01:05:24;18.53;;;10.90;;
53299;SDS011;39187;48.476;8.310;2022-12-18T01:07:50;16.13;;;11.53;;
53299;SDS011;39187;48.476;8.310;2022-12-18T01:10:16;18.03;;;11.47;;
53299;SDS011;39187;48.476;8.310;2022-12-18T01:12:42;19.37;;;10.57;;
53299;SDS011;39187;48.476;8.310;2022-12-18T01:15:09;14.07;;;9.93;;
53299;SDS011;39187;48.476;8.310;2022-12-18T01:17:35;17.03;;;10.90;;
53299;SDS011;39187;48.476;8.310;2022-12-18T01:20:01;19.60;;;11.70;;
53299;SDS011;39187;48.476;8.310;2022-12-18T01:22:26;14.03;;;10.47;;
53299;SDS011;39187;48.476;8.310;2022-12-18T01:24:52;20.50;;;11.73;;
53299;SDS011;39187;48.476;8.310;2022-12-18T01:27:18;15.60;;;10.23;;
53299;SDS011;39187;48.476;8.310;2022-12-18T01:29:43;17.00;;;11.90;;
53299;SDS011;39187;48.476;8.310;2022-12-18T01:32:09;20.63;;;12.00;;
53299;SDS011;39187;48.476;8.310;2022-12-18T01:34:37;24.60;;;12.40;;
53299;SDS011;39187;48.476;8.310;2022-12-18T01:37:04;16.23;;;10.50;;
53299;SDS011;39187;48.476;8.310;2022-12-18T01:39:30;16.67;;;11.40;;
53299;SDS011;39187;48.476;8.310;2022-12-18T01:42:00;18.50;;;10.67;;
53299;SDS011;39187;48.476;8.310;2022-12-18T01:47:13;13.10;;;9.90;;
53299;SDS011;39187;48.476;8.310;2022-12-18T01:49:55;14.50;;;10.37;;
53299;SDS011;39187;48.476;8.310;2022-12-18T01:52:23;17.87;;;11.13;;
53299;SDS011;39187;48.476;8.310;2022-12-18T01:54:53;16.43;;;10.27;;
53299;SDS011;39187;48.476;8.310;2022-12-18T01:57:20;11.73;;;9.60;;
53299;SDS011;39187;48.476;8.310;2022-12-18T01:59:47;18.27;;;9.40;;
53299;SDS011;39187;48.476;8.310;2022-12-18T02:02:17;14.83;;;10.33;;
53299;SDS011;39187;48.476;8.310;2022-12-18T02:04:43;22.70;;;12.50;;
53299;SDS011;39187;48.476;8.310;2022-12-18T02:12:45;17.07;;;11.20;;
53299;SDS011;39187;48.476;8.310;2022-12-18T02:15:44;19.27;;;11.80;;
53299;SDS011;39187;48.476;8.310;2022-12-18T02:19:20;21.93;;;11.10;;
53299;SDS011;39187;48.476;8.310;2022-12-18T02:23:56;19.97;;;11.97;;
53299;SDS011;39187;48.476;8.310;2022-12-18T02:26:49;17.03;;;11.20;;
53299;SDS011;39187;48.476;8.310;2022-12-18T02:29:20;15.83;;;11.37;;
53299;SDS011;39187;48.476;8.310;2022-12-18T02:31:50;21.50;;;12.00;;
53299;SDS011;39187;48.476;8.310;2022-12-18T02:34:19;21.23;;;11.97;;
53299;SDS011;39187;48.476;8.310;2022-12-18T02:36:49;21.93;;;12.40;;
53299;SDS011;39187;48.476;8.310;2022-12-18T02:39:16;20.53;;;12.60;;
53299;SDS011;39187;48.476;8.310;2022-12-18T02:41:46;17.10;;;12.20;;
53299;SDS011;39187;48.476;8.310;2022-12-18T02:44:12;19.90;;;12.27;;
53299;SDS011;39187;48.476;8.310;2022-12-18T02:46:45;20.00;;;12.67;;
53299;SDS011;39187;48.476;8.310;2022-12-18T02:55:18;20.73;;;12.67;;
53299;SDS011;39187;48.476;8.310;2022-12-18T03:00:35;20.00;;;12.00;;
53299;SDS011;39187;48.476;8.310;2022-12-18T03:03:09;30.20;;;12.37;;
53299;SDS011;39187;48.476;8.310;2022-12-18T03:05:47;22.80;;;12.53;;
53299;SDS011;39187;48.476;8.310;2022-12-18T03:08:33;18.70;;;11.50;;
53299;SDS011;39187;48.476;8.310;2022-12-18T03:13:39;25.50;;;12.47;;
53299;SDS011;39187;48.476;8.310;2022-12-18T03:16:17;22.30;;;11.60;;
53299;SDS011;39187;48.476;8.310;2022-12-18T03:19:03;17.70;;;10.70;;
53299;SDS011;39187;48.476;8.310;2022-12-18T03:21:39;22.73;;;12.67;;
53299;SDS011;39187;48.476;8.310;2022-12-18T03:24:08;22.07;;;12.07;;
53299;SDS011;39187;48.476;8.310;2022-12-18T03:26:36;20.67;;;11.80;;
53299;SDS011;39187;48.476;8.310;2022-12-18T03:29:07;19.00;;;12.00;;
53299;SDS011;39187;48.476;8.310;2022-12-18T03:31:39;22.53;;;12.73;;
53299;SDS011;39187;48.476;8.310;2022-12-18T03:34:17;22.80;;;13.43;;
53299;SDS011;39187;48.476;8.310;2022-12-18T03:36:48;21.53;;;11.83;;
53299;SDS011;39187;48.476;8.310;2022-12-18T03:39:14;18.57;;;11.70;;
53299;SDS011;39187;48.476;8.310;2022-12-18T03:41:43;18.83;;;13.10;;
53299;SDS011;39187;48.476;8.310;2022-12-18T03:44:14;26.40;;;14.47;;
53299;SDS011;39187;48.476;8.310;2022-12-18T03:49:26;23.07;;;13.97;;
53299;SDS011;39187;48.476;8.310;2022-12-18T03:54:49;20.53;;;12.87;;
53299;SDS011;39187;48.476;8.310;2022-12-18T03:57:16;18.70;;;11.40;;
53299;SDS011;39187;48.476;8.310;2022-12-18T03:59:45;16.77;;;10.47;;
53299;SDS011;39187;48.476;8.310;2022-12-18T04:02:15;18.53;;;11.70;;
53299;SDS011;39187;48.476;8.310;2022-12-18T04:04:42;15.53;;;10.73;;
53299;SDS011;39187;48.476;8.310;2022-12-18T04:07:09;16.50;;;11.40;;
53299;SDS011;39187;48.476;8.310;2022-12-18T04:09:36;12.03;;;9.27;;
53299;SDS011;39187;48.476;8.310;2022-12-18T04:12:04;12.80;;;9.40;;
53299;SDS011;39187;48.476;8.310;2022-12-18T04:14:30;16.37;;;8.90;;
53299;SDS011;39187;48.476;8.310;2022-12-18T04:17:00;13.90;;;9.90;;
53299;SDS011;39187;48.476;8.310;2022-12-18T04:19:27;14.73;;;8.80;;
53299;SDS011;39187;48.476;8.310;2022-12-18T04:21:53;16.80;;;9.40;;
53299;SDS011;39187;48.476;8.310;2022-12-18T04:24:18;10.53;;;8.40;;
53299;SDS011;39187;48.476;8.310;2022-12-18T04:26:44;8.53;;;7.10;;
53299;SDS011;39187;48.476;8.310;2022-12-18T04:29:09;12.00;;;8.80;;
53299;SDS011;39187;48.476;8.310;2022-12-18T04:31:35;13.33;;;7.73;;
53299;SDS011;39187;48.476;8.310;2022-12-18T04:34:01;7.60;;;6.60;;
53299;SDS011;39187;48.476;8.310;2022-12-18T04:36:27;11.13;;;8.23;;
53299;SDS011;39187;48.476;8.310;2022-12-18T04:38:52;12.90;;;9.60;;
53299;SDS011;39187;48.476;8.310;2022-12-18T04:41:18;12.87;;;9.60;;
53299;SDS011;39187;48.476;8.310;2022-12-18T04:43:43;10.90;;;7.33;;
53299;SDS011;39187;48.476;8.310;2022-12-18T04:46:09;14.23;;;10.30;;
53299;SDS011;39187;48.476;8.310;2022-12-18T04:48:34;14.00;;;9.43;;
53299;SDS011;39187;48.476;8.310;2022-12-18T04:51:00;14.60;;;9.67;;
53299;SDS011;39187;48.476;8.310;2022-12-18T04:53:26;16.80;;;9.97;;
53299;SDS011;39187;48.476;8.310;2022-12-18T04:56:01;21.27;;;12.60;;
53299;SDS011;39187;48.476;8.310;2022-12-18T04:58:31;24.67;;;13.40;;
53299;SDS011;39187;48.476;8.310;2022-12-18T05:00:57;22.13;;;10.83;;
53299;SDS011;39187;48.476;8.310;2022-12-18T05:03:22;16.17;;;11.40;;
53299;SDS011;39187;48.476;8.310;2022-12-18T05:05:51;22.33;;;12.03;;
53299;SDS011;39187;48.476;8.310;2022-12-18T05:08:17;17.87;;;11.20;;
53299;SDS011;39187;48.476;8.310;2022-12-18T05:10:43;20.40;;;11.87;;
53299;SDS011;39187;48.476;8.310;2022-12-18T05:13:08;19.17;;;10.70;;
53299;SDS011;39187;48.476;8.310;2022-12-18T05:15:34;21.47;;;11.40;;
53299;SDS011;39187;48.476;8.310;2022-12-18T05:17:59;15.37;;;9.87;;
53299;SDS011;39187;48.476;8.310;2022-12-18T05:20:25;22.20;;;11.37;;
53299;SDS011;39187;48.476;8.310;2022-12-18T05:22:52;19.40;;;10.63;;
53299;SDS011;39187;48.476;8.310;2022-12-18T05:25:18;17.20;;;10.30;;
53299;SDS011;39187;48.476;8.310;2022-12-18T05:27:45;15.20;;;11.27;;
53299;SDS011;39187;48.476;8.310;2022-12-18T05:30:11;24.67;;;12.83;;
53299;SDS011;39187;48.476;8.310;2022-12-18T05:32:37;16.87;;;11.00;;
53299;SDS011;39187;48.476;8.310;2022-12-18T05:35:03;19.00;;;12.10;;
53299;SDS011;39187;48.476;8.310;2022-12-18T05:37:30;20.90;;;11.40;;
53299;SDS011;39187;48.476;8.310;2022-12-18T05:39:56;24.53;;;12.80;;
53299;SDS011;39187;48.476;8.310;2022-12-18T05:42:21;19.13;;;11.23;;
53299;SDS011;39187;48.476;8.310;2022-12-18T05:44:47;25.57;;;10.83;;
53299;SDS011;39187;48.476;8.310;2022-12-18T05:47:13;21.43;;;11.10;;
53299;SDS011;39187;48.476;8.310;2022-12-18T05:49:38;20.60;;;11.30;;
53299;SDS011;39187;48.476;8.310;2022-12-18T05:52:04;27.23;;;14.30;;
53299;SDS011;39187;48.476;8.310;2022-12-18T05:54:29;27.10;;;12.97;;
53299;SDS011;39187;48.476;8.310;2022-12-18T05:56:56;23.60;;;13.80;;
53299;SDS011;39187;48.476;8.310;2022-12-18T05:59:22;23.20;;;12.33;;
53299;SDS011;39187;48.476;8.310;2022-12-18T06:01:48;19.10;;;11.30;;
53299;SDS011;39187;48.476;8.310;2022-12-18T06:04:13;22.73;;;12.07;;
53299;SDS011;39187;48.476;8.310;2022-12-18T06:06:39;19.33;;;11.83;;
53299;SDS011;39187;48.476;8.310;2022-12-18T06:09:05;19.50;;;12.53;;
53299;SDS011;39187;48.476;8.310;2022-12-18T06:11:34;22.50;;;11.10;;
53299;SDS011;39187;48.476;8.310;2022-12-18T06:14:01;17.40;;;11.70;;
53299;SDS011;39187;48.476;8.310;2022-12-18T06:16:27;17.53;;;11.10;;
53299;SDS011;39187;48.476;8.310;2022-12-18T06:18:55;20.33;;;9.80;;
53299;SDS011;39187;48.476;8.310;2022-12-18T06:21:22;21.73;;;9.70;;
53299;SDS011;39187;48.476;8.310;2022-12-18T06:23:47;16.00;;;11.20;;
53299;SDS011;39187;48.476;8.310;2022-12-18T06:26:13;25.27;;;12.30;;
53299;SDS011;39187;48.476;8.310;2022-12-18T06:28:39;26.53;;;14.17;;
53299;SDS011;39187;48.476;8.310;2022-12-18T06:31:05;21.80;;;11.80;;
53299;SDS011;39187;48.476;8.310;2022-12-18T06:33:32;23.77;;;13.30;;
53299;SDS011;39187;48.476;8.310;2022-12-18T06:36:00;29.60;;;12.90;;
53299;SDS011;39187;48.476;8.310;2022-12-18T06:38:31;25.30;;;12.47;;
53299;SDS011;39187;48.476;8.310;2022-12-18T06:40:57;25.33;;;13.90;;
53299;SDS011;39187;48.476;8.310;2022-12-18T06:43:22;24.73;;;13.00;;
53299;SDS011;39187;48.476;8.310;2022-12-18T06:45:48;35.47;;;15.10;;
53299;SDS011;39187;48.476;8.310;2022-12-18T06:48:18;29.70;;;13.93;;
53299;SDS011;39187;48.476;8.310;2022-12-18T06:50:45;27.17;;;15.67;;
53299;SDS011;39187;48.476;8.310;2022-12-18T06:53:10;30.93;;;15.23;;
53299;SDS011;39187;48.476;8.310;2022-12-18T06:55:36;34.83;;;15.60;;
53299;SDS011;39187;48.476;8.310;2022-12-18T06:58:02;38.30;;;17.77;;
53299;SDS011;39187;48.476;8.310;2022-12-18T07:00:27;36.40;;;15.90;;
53299;SDS011;39187;48.476;8.310;2022-12-18T07:02:53;29.90;;;15.63;;
53299;SDS011;39187;48.476;8.310;2022-12-18T07:05:18;33.47;;;16.00;;
53299;SDS011;39187;48.476;8.310;2022-12-18T07:07:44;31.50;;;16.63;;
53299;SDS011;39187;48.476;8.310;2022-12-18T07:10:09;27.47;;;14.20;;
53299;SDS011;39187;48.476;8.310;2022-12-18T07:12:35;30.90;;;15.50;;
53299;SDS011;39187;48.476;8.310;2022-12-18T07:15:00;34.50;;;16.47;;
53299;SDS011;39187;48.476;8.310;2022-12-18T07:17:26;38.53;;;17.40;;
53299;SDS011;39187;48.476;8.310;2022-12-18T07:19:52;33.07;;;16.10;;
53299;SDS011;39187;48.476;8.310;2022-12-18T07:22:17;30.07;;;15.60;;
53299;SDS011;39187;48.476;8.310;2022-12-18T07:24:43;30.30;;;14.70;;
53299;SDS011;39187;48.476;8.310;2022-12-18T07:27:08;29.50;;;14.53;;
53299;SDS011;39187;48.476;8.310;2022-12-18T07:29:36;29.03;;;16.77;;
53299;SDS011;39187;48.476;8.310;2022-12-18T07:32:02;31.13;;;16.50;;
53299;SDS011;39187;48.476;8.310;2022-12-18T07:34:27;32.73;;;16.40;;
53299;SDS011;39187;48.476;8.310;2022-12-18T07:36:53;35.83;;;18.77;;
53299;SDS011;39187;48.476;8.310;2022-12-18T07:39:18;38.00;;;18.57;;
53299;SDS011;39187;48.476;8.310;2022-12-18T07:41:44;34.47;;;17.30;;
53299;SDS011;39187;48.476;8.310;2022-12-18T07:44:29;40.50;;;18.73;;
53299;SDS011;39187;48.476;8.310;2022-12-18T07:46:55;25.97;;;14.93;;
53299;SDS011;39187;48.476;8.310;2022-12-18T07:49:20;33.17;;;16.63;;
53299;SDS011;39187;48.476;8.310;2022-12-18T07:51:48;34.83;;;19.07;;
53299;SDS011;39187;48.476;8.310;2022-12-18T07:54:14;34.87;;;18.23;;
53299;SDS011;39187;48.476;8.310;2022-12-18T07:56:39;34.03;;;17.23;;
53299;SDS011;39187;48.476;8.310;2022-12-18T07:59:05;31.63;;;17.97;;
53299;SDS011;39187;48.476;8.310;2022-12-18T08:01:31;35.77;;;18.60;;
53299;SDS011;39187;48.476;8.310;2022-12-18T08:03:57;32.80;;;19.50;;
53299;SDS011;39187;48.476;8.310;2022-12-18T08:06:23;33.20;;;17.70;;
53299;SDS011;39187;48.476;8.310;2022-12-18T08:08:50;34.07;;;17.90;;
53299;SDS011;39187;48.476;8.310;2022-12-18T08:11:17;33.37;;;17.97;;
53299;SDS011;39187;48.476;8.310;2022-12-18T08:13:42;27.30;;;15.87;;
53299;SDS011;39187;48.476;8.310;2022-12-18T08:16:08;32.17;;;16.90;;
53299;SDS011;39187;48.476;8.310;2022-12-18T08:18:34;28.07;;;17.60;;
53299;SDS011;39187;48.476;8.310;2022-12-18T08:21:10;32.67;;;17.93;;
53299;SDS011;39187;48.476;8.310;2022-12-18T08:23:37;29.23;;;18.57;;
53299;SDS011;39187;48.476;8.310;2022-12-18T08:26:03;31.00;;;16.70;;
53299;SDS011;39187;48.476;8.310;2022-12-18T08:28:28;26.50;;;14.97;;
53299;SDS011;39187;48.476;8.310;2022-12-18T08:30:54;32.70;;;17.80;;
53299;SDS011;39187;48.476;8.310;2022-12-18T08:33:20;26.10;;;15.70;;
53299;SDS011;39187;48.476;8.310;2022-12-18T08:35:45;25.67;;;14.80;;
53299;SDS011;39187;48.476;8.310;2022-12-18T08:38:11;18.17;;;11.90;;
53299;SDS011;39187;48.476;8.310;2022-12-18T08:40:36;50.20;;;22.50;;
53299;SDS011;39187;48.476;8.310;2022-12-18T08:43:02;37.10;;;17.80;;
53299;SDS011;39187;48.476;8.310;2022-12-18T08:45:45;32.27;;;16.07;;
53299;SDS011;39187;48.476;8.310;2022-12-18T08:48:11;28.50;;;16.07;;
53299;SDS011;39187;48.476;8.310;2022-12-18T08:50:38;27.47;;;15.63;;
53299;SDS011;39187;48.476;8.310;2022-12-18T08:53:04;14.97;;;11.10;;
53299;SDS011;39187;48.476;8.310;2022-12-18T08:55:29;23.67;;;13.23;;
53299;SDS011;39187;48.476;8.310;2022-12-18T08:57:55;22.10;;;13.23;;
53299;SDS011;39187;48.476;8.310;2022-12-18T09:00:20;15.53;;;10.33;;
53299;SDS011;39187;48.476;8.310;2022-12-18T09:02:46;10.23;;;7.33;;
53299;SDS011;39187;48.476;8.310;2022-12-18T09:05:11;6.03;;;5.50;;
53299;SDS011;39187;48.476;8.310;2022-12-18T09:07:37;7.90;;;6.60;;
53299;SDS011;39187;48.476;8.310;2022-12-18T09:10:03;7.97;;;6.43;;
53299;SDS011;39187;48.476;8.310;2022-12-18T09:12:29;7.13;;;6.43;;
53299;SDS011;39187;48.476;8.310;2022-12-18T09:14:54;7.10;;;6.10;;
53299;SDS011;39187;48.476;8.310;2022-12-18T09:17:21;6.17;;;5.40;;
53299;SDS011;39187;48.476;8.310;2022-12-18T09:19:47;6.20;;;5.60;;
53299;SDS011;39187;48.476;8.310;2022-12-18T09:22:13;5.37;;;4.57;;
53299;SDS011;39187;48.476;8.310;2022-12-18T09:24:38;4.47;;;2.93;;
53299;SDS011;39187;48.476;8.310;2022-12-18T09:27:04;2.30;;;2.17;;
53299;SDS011;39187;48.476;8.310;2022-12-18T09:29:29;1.83;;;1.50;;
53299;SDS011;39187;48.476;8.310;2022-12-18T09:31:55;3.80;;;3.50;;
53299;SDS011;39187;48.476;8.310;2022-12-18T09:34:21;4.93;;;4.43;;
53299;SDS011;39187;48.476;8.310;2022-12-18T09:36:47;4.43;;;4.00;;
53299;SDS011;39187;48.476;8.310;2022-12-18T09:39:13;9.50;;;5.10;;
53299;SDS011;39187;48.476;8.310;2022-12-18T09:44:18;7.33;;;6.63;;
53299;SDS011;39187;48.476;8.310;2022-12-18T09:49:45;6.57;;;5.80;;
53299;SDS011;39187;48.476;8.310;2022-12-18T09:54:44;6.90;;;3.23;;
53299;SDS011;39187;48.476;8.310;2022-12-18T09:57:18;3.40;;;3.20;;
53299;SDS011;39187;48.476;8.310;2022-12-18T09:59:51;2.10;;;2.00;;
53299;SDS011;39187;48.476;8.310;2022-12-18T10:02:21;2.10;;;2.00;;
53299;SDS011;39187;48.476;8.310;2022-12-18T10:05:11;2.00;;;1.90;;
53299;SDS011;39187;48.476;8.310;2022-12-18T10:16:09;1.60;;;1.50;;
53299;SDS011;39187;48.476;8.310;2022-12-18T10:19:33;1.20;;;1.10;;
53299;SDS011;39187;48.476;8.310;2022-12-18T10:24:59;2.00;;;1.90;;
53299;SDS011;39187;48.476;8.310;2022-12-18T10:27:37;2.70;;;2.60;;
53299;SDS011;39187;48.476;8.310;2022-12-18T10:30:07;2.40;;;2.30;;
53299;SDS011;39187;48.476;8.310;2022-12-18T10:32:38;1.97;;;1.87;;
53299;SDS011;39187;48.476;8.310;2022-12-18T10:35:04;1.47;;;1.43;;
53299;SDS011;39187;48.476;8.310;2022-12-18T10:37:35;1.17;;;1.17;;
53299;SDS011;39187;48.476;8.310;2022-12-18T10:40:08;1.43;;;1.33;;
53299;SDS011;39187;48.476;8.310;2022-12-18T10:42:38;1.10;;;1.00;;
53299;SDS011;39187;48.476;8.310;2022-12-18T10:45:10;1.33;;;1.23;;
53299;SDS011;39187;48.476;8.310;2022-12-18T10:47:44;1.30;;;1.20;;
53299;SDS011;39187;48.476;8.310;2022-12-18T10:50:20;2.40;;;1.40;;
53299;SDS011;39187;48.476;8.310;2022-12-18T10:52:54;1.57;;;1.47;;
53299;SDS011;39187;48.476;8.310;2022-12-18T10:55:22;1.77;;;1.67;;
53299;SDS011;39187;48.476;8.310;2022-12-18T10:57:49;2.30;;;2.00;;
53299;SDS011;39187;48.476;8.310;2022-12-18T11:00:23;3.53;;;3.23;;
53299;SDS011;39187;48.476;8.310;2022-12-18T11:02:54;2.90;;;2.63;;
53299;SDS011;39187;48.476;8.310;2022-12-18T11:05:28;4.03;;;2.40;;
53299;SDS011;39187;48.476;8.310;2022-12-18T11:07:58;2.10;;;2.00;;
53299;SDS011;39187;48.476;8.310;2022-12-18T11:10:26;1.90;;;1.53;;
53299;SDS011;39187;48.476;8.310;2022-12-18T11:12:55;1.40;;;1.30;;
53299;SDS011;39187;48.476;8.310;2022-12-18T11:15:33;1.70;;;1.60;;
53299;SDS011;39187;48.476;8.310;2022-12-18T11:17:59;1.00;;;0.90;;
53299;SDS011;39187;48.476;8.310;2022-12-18T11:20:30;1.10;;;1.10;;
53299;SDS011;39187;48.476;8.310;2022-12-18T11:23:10;1.30;;;1.20;;
53299;SDS011;39187;48.476;8.310;2022-12-18T11:25:38;1.60;;;1.50;;
53299;SDS011;39187;48.476;8.310;2022-12-18T11:28:06;1.67;;;1.17;;
53299;SDS011;39187;48.476;8.310;2022-12-18T11:33:46;0.87;;;0.87;;
53299;SDS011;39187;48.476;8.310;2022-12-18T11:36:19;0.97;;;0.97;;
53299;SDS011;39187;48.476;8.310;2022-12-18T11:38:47;0.80;;;0.80;;
53299;SDS011;39187;48.476;8.310;2022-12-18T11:44:11;1.03;;;1.00;;
53299;SDS011;39187;48.476;8.310;2022-12-18T11:46:46;1.27;;;1.17;;
53299;SDS011;39187;48.476;8.310;2022-12-18T11:54:35;1.30;;;1.30;;
53299;SDS011;39187;48.476;8.310;2022-12-18T11:57:04;1.30;;;1.23;;
53299;SDS011;39187;48.476;8.310;2022-12-18T12:08:27;1.10;;;1.10;;
53299;SDS011;39187;48.476;8.310;2022-12-18T12:19:53;1.40;;;1.30;;
53299;SDS011;39187;48.476;8.310;2022-12-18T12:22:37;1.67;;;1.57;;
53299;SDS011;39187;48.476;8.310;2022-12-18T12:27:51;1.40;;;1.30;;
53299;SDS011;39187;48.476;8.310;2022-12-18T12:30:42;1.50;;;1.40;;
53299;SDS011;39187;48.476;8.310;2022-12-18T12:33:47;1.20;;;1.17;;
53299;SDS011;39187;48.476;8.310;2022-12-18T12:39:06;1.53;;;1.43;;
53299;SDS011;39187;48.476;8.310;2022-12-18T12:41:35;1.50;;;1.40;;
53299;SDS011;39187;48.476;8.310;2022-12-18T12:44:22;1.40;;;1.30;;
53299;SDS011;39187;48.476;8.310;2022-12-18T12:47:25;1.53;;;1.43;;
53299;SDS011;39187;48.476;8.310;2022-12-18T12:49:52;1.37;;;1.33;;
53299;SDS011;39187;48.476;8.310;2022-12-18T12:54:51;1.63;;;1.53;;
53299;SDS011;39187;48.476;8.310;2022-12-18T13:00:37;1.60;;;1.50;;
53299;SDS011;39187;48.476;8.310;2022-12-18T13:09:02;2.00;;;1.90;;
53299;SDS011;39187;48.476;8.310;2022-12-18T13:11:34;3.00;;;2.90;;
53299;SDS011;39187;48.476;8.310;2022-12-18T13:19:56;3.80;;;3.60;;
53299;SDS011;39187;48.476;8.310;2022-12-18T13:22:37;2.50;;;2.40;;
53299;SDS011;39187;48.476;8.310;2022-12-18T13:25:33;2.40;;;2.23;;
53299;SDS011;39187;48.476;8.310;2022-12-18T13:28:07;2.30;;;2.20;;
53299;SDS011;39187;48.476;8.310;2022-12-18T13:48:26;2.20;;;2.10;;
53299;SDS011;39187;48.476;8.310;2022-12-18T13:53:29;1.90;;;1.80;;
53299;SDS011;39187;48.476;8.310;2022-12-18T13:55:58;2.80;;;2.60;;
53299;SDS011;39187;48.476;8.310;2022-12-18T13:58:23;2.10;;;2.00;;
53299;SDS011;39187;48.476;8.310;2022-12-18T14:00:49;2.03;;;1.93;;
53299;SDS011;39187;48.476;8.310;2022-12-18T14:03:19;1.87;;;1.77;;
53299;SDS011;39187;48.476;8.310;2022-12-18T14:06:01;1.90;;;1.80;;
53299;SDS011;39187;48.476;8.310;2022-12-18T14:08:48;1.47;;;1.37;;
53299;SDS011;39187;48.476;8.310;2022-12-18T14:11:20;2.27;;;2.17;;
53299;SDS011;39187;48.476;8.310;2022-12-18T14:13:48;1.80;;;1.70;;
53299;SDS011;39187;48.476;8.310;2022-12-18T14:16:14;2.37;;;2.27;;
53299;SDS011;39187;48.476;8.310;2022-12-18T14:18:44;2.37;;;2.03;;
53299;SDS011;39187;48.476;8.310;2022-12-18T14:21:20;3.47;;;1.90;;
53299;SDS011;39187;48.476;8.310;2022-12-18T14:23:48;2.57;;;2.47;;
53299;SDS011;39187;48.476;8.310;2022-12-18T14:26:48;2.10;;;2.00;;
53299;SDS011;39187;48.476;8.310;2022-12-18T14:29:26;1.83;;;1.73;;
53299;SDS011;39187;48.476;8.310;2022-12-18T14:34:42;1.60;;;1.37;;
53299;SDS011;39187;48.476;8.310;2022-12-18T14:37:21;1.97;;;1.87;;
53299;SDS011;39187;48.476;8.310;2022-12-18T14:39:56;1.47;;;1.37;;
53299;SDS011;39187;48.476;8.310;2022-12-18T14:42:24;1.60;;;1.50;;
53299;SDS011;39187;48.476;8.310;2022-12-18T14:45:39;1.33;;;1.23;;
53299;SDS011;39187;48.476;8.310;2022-12-18T14:47:57;2.30;;;2.10;;
53299;SDS011;39187;48.476;8.310;2022-12-18T14:50:23;1.30;;;1.20;;
53299;SDS011;39187;48.476;8.310;2022-12-18T14:52:49;1.40;;;1.30;;
53299;SDS011;39187;48.476;8.310;2022-12-18T14:55:19;1.93;;;1.83;;
53299;SDS011;39187;48.476;8.310;2022-12-18T14:57:48;2.20;;;2.10;;
53299;SDS011;39187;48.476;8.310;2022-12-18T15:00:18;1.73;;;1.63;;
53299;SDS011;39187;48.476;8.310;2022-12-18T15:02:46;2.23;;;2.13;;
53299;SDS011;39187;48.476;8.310;2022-12-18T15:05:29;2.20;;;2.00;;
53299;SDS011;39187;48.476;8.310;2022-12-18T15:07:57;1.70;;;1.60;;
53299;SDS011;39187;48.476;8.310;2022-12-18T15:10:25;1.67;;;1.57;;
53299;SDS011;39187;48.476;8.310;2022-12-18T15:18:02;1.27;;;1.23;;
53299;SDS011;39187;48.476;8.310;2022-12-18T15:23:51;2.33;;;2.23;;
53299;SDS011;39187;48.476;8.310;2022-12-18T15:26:09;3.33;;;2.27;;
53299;SDS011;39187;48.476;8.310;2022-12-18T15:28:44;2.80;;;2.60;;
53299;SDS011;39187;48.476;8.310;2022-12-18T15:33:45;5.03;;;3.80;;
53299;SDS011;39187;48.476;8.310;2022-12-18T15:36:28;3.80;;;3.60;;
53299;SDS011;39187;48.476;8.310;2022-12-18T15:38:55;2.80;;;2.60;;
53299;SDS011;39187;48.476;8.310;2022-12-18T15:41:22;3.03;;;2.50;;
53299;SDS011;39187;48.476;8.310;2022-12-18T15:43:48;3.90;;;2.63;;
53299;SDS011;39187;48.476;8.310;2022-12-18T15:46:16;2.40;;;2.30;;
53299;SDS011;39187;48.476;8.310;2022-12-18T15:48:50;2.53;;;2.43;;
53299;SDS011;39187;48.476;8.310;2022-12-18T15:51:21;2.10;;;2.00;;
53299;SDS011;39187;48.476;8.310;2022-12-18T15:53:50;5.17;;;1.80;;
53299;SDS011;39187;48.476;8.310;2022-12-18T15:56:19;2.20;;;2.10;;
53299;SDS011;39187;48.476;8.310;2022-12-18T15:59:04;1.77;;;1.67;;
53299;SDS011;39187;48.476;8.310;2022-12-18T16:01:34;3.00;;;1.90;;
53299;SDS011;39187;48.476;8.310;2022-12-18T16:04:00;2.30;;;2.20;;
53299;SDS011;39187;48.476;8.310;2022-12-18T16:06:26;2.30;;;2.20;;
53299;SDS011;39187;48.476;8.310;2022-12-18T16:08:51;1.73;;;1.63;;
53299;SDS011;39187;48.476;8.310;2022-12-18T16:11:21;1.60;;;1.50;;
53299;SDS011;39187;48.476;8.310;2022-12-18T16:16:44;1.50;;;1.40;;
53299;SDS011;39187;48.476;8.310;2022-12-18T16:19:14;1.73;;;1.63;;
53299;SDS011;39187;48.476;8.310;2022-12-18T16:21:40;1.60;;;1.50;;
53299;SDS011;39187;48.476;8.310;2022-12-18T16:24:05;1.43;;;1.33;;
53299;SDS011;39187;48.476;8.310;2022-12-18T16:26:39;1.70;;;1.60;;
53299;SDS011;39187;48.476;8.310;2022-12-18T16:29:07;1.83;;;1.73;;
53299;SDS011;39187;48.476;8.310;2022-12-18T16:31:32;1.47;;;1.37;;
53299;SDS011;39187;48.476;8.310;2022-12-18T16:34:11;1.40;;;1.30;;
53299;SDS011;39187;48.476;8.310;2022-12-18T16:36:37;1.47;;;1.37;;
53299;SDS011;39187;48.476;8.310;2022-12-18T16:39:03;1.20;;;1.20;;
53299;SDS011;39187;48.476;8.310;2022-12-18T16:41:29;2.20;;;2.10;;
53299;SDS011;39187;48.476;8.310;2022-12-18T16:43:57;1.40;;;1.30;;
53299;SDS011;39187;48.476;8.310;2022-12-18T16:46:23;1.30;;;1.30;;
53299;SDS011;39187;48.476;8.310;2022-12-18T16:48:49;1.50;;;1.40;;
53299;SDS011;39187;48.476;8.310;2022-12-18T16:51:14;1.20;;;1.10;;
53299;SDS011;39187;48.476;8.310;2022-12-18T16:53:40;1.43;;;1.33;;
53299;SDS011;39187;48.476;8.310;2022-12-18T16:56:05;1.23;;;1.23;;
53299;SDS011;39187;48.476;8.310;2022-12-18T16:58:31;1.90;;;1.40;;
53299;SDS011;39187;48.476;8.310;2022-12-18T17:00:57;2.03;;;1.93;;
53299;SDS011;39187;48.476;8.310;2022-12-18T17:03:22;1.63;;;1.53;;